Time;durP1;ratioP1;P1;durP2;ratioP2;P2;SDS_P1;SDS_P2;PMS_P1;PMS_P2;Temp;Humidity;BMP_temperature;BMP_pressure;BME280_temperature;BME280_humidity;BME280_pressure;Samples;Min_cycle;Max_cycle;Signal;HPM_P1;HPM_P2
2023/03/12 00:01:19;;;;;;;;;;;;;;;7.97;58.38;98632.25;3164170;27;20486;-72
2023/03/12 00:02:51;;;;;;;;;;;;;;;8.01;58.42;98638.09;3177240;27;19954;-72
2023/03/12 00:04:23;;;;;;;;;;;;;;;8.04;58.27;98635.34;3178959;27;19934;-72
2023/03/12 00:05:54;;;;;;;;;;;;;;;8.03;57.70;98631.94;3175161;27;19992;-71
2023/03/12 00:07:26;;;;;;;;;;;;;;;8.05;57.86;98644.81;3174775;27;19927;-70
2023/03/12 00:08:57;;;;;;;;;;;;;;;8.04;57.26;98637.94;3179115;27;19928;-70
2023/03/12 00:10:29;;;;;;;;;;;;;;;8.05;57.09;98644.81;3179043;27;19938;-71
2023/03/12 00:12:01;;;;;;;;;;;;;;;8.03;56.55;98642.28;3178318;27;19927;-70
2023/03/12 00:13:33;;;;;;;;;;;;;;;8.02;55.96;98645.81;3175984;27;20692;-70
2023/03/12 00:15:05;;;;;;;;;;;;;;;8.01;55.90;98643.28;3170916;27;20373;-70
2023/03/12 00:16:36;;;;;;;;;;;;;;;7.98;55.67;98639.09;3174112;27;19927;-70
2023/03/12 00:18:08;;;;;;;;;;;;;;;7.98;55.26;98645.13;3178672;27;20549;-71
2023/03/12 00:19:40;;;;;;;;;;;;;;;8.00;55.43;98652.84;3169401;27;19928;-71
2023/03/12 00:21:11;;;;;;;;;;;;;;;8.00;55.07;98650.25;3174002;27;19928;-71
2023/03/12 00:22:43;;;;;;;;;;;;;;;8.00;55.01;98644.22;3178614;27;19988;-70
2023/03/12 00:24:15;;;;;;;;;;;;;;;8.01;55.16;98656.25;3178655;27;19931;-70
2023/03/12 00:25:47;;;;;;;;;;;;;;;8.00;55.05;98652.84;3178795;27;19927;-71
2023/03/12 00:27:19;;;;;;;;;;;;;;;7.98;55.44;98649.47;3170324;27;19957;-70
2023/03/12 00:28:50;;;;;;;;;;;;;;;7.94;55.81;98645.38;3177200;27;19928;-70
2023/03/12 00:30:22;;;;;;;;;;;;;;;7.92;55.98;98644.63;3176491;27;19991;-70
2023/03/12 00:31:54;;;;;;;;;;;;;;;7.89;56.21;98643.03;3175949;27;19931;-70
2023/03/12 00:33:26;;;;;;;;;;;;;;;7.86;56.62;98634.56;3178605;27;20682;-70
2023/03/12 00:34:57;;;;;;;;;;;;;;;7.80;56.73;98646.09;3170314;27;19932;-71
2023/03/12 00:36:30;;;;;;;;;;;;;;;7.78;56.47;98655.72;3173059;27;20399;-72
2023/03/12 00:38:02;;;;;;;;;;;;;;;7.73;56.01;98645.59;3178114;27;20148;-70
2023/03/12 00:39:33;;;;;;;;;;;;;;;7.67;56.06;98648.50;3178450;27;19974;-71
2023/03/12 00:41:05;;;;;;;;;;;;;;;7.64;56.00;98646.06;3178362;27;19931;-69
2023/03/12 00:42:37;;;;;;;;;;;;;;;7.59;56.10;98644.63;3178680;27;20117;-70
2023/03/12 00:44:09;;;;;;;;;;;;;;;7.57;56.36;98652.47;3178200;27;20000;-71
2023/03/12 00:45:40;;;;;;;;;;;;;;;7.54;56.39;98642.25;3174141;27;20425;-71
2023/03/12 00:47:13;;;;;;;;;;;;;;;7.50;56.29;98651.13;3178195;27;19927;-71
2023/03/12 00:48:45;;;;;;;;;;;;;;;7.47;56.45;98649.50;3178281;27;19927;-70
2023/03/12 00:50:16;;;;;;;;;;;;;;;7.44;56.28;98641.91;3178567;27;19931;-70
2023/03/12 00:51:48;;;;;;;;;;;;;;;7.39;56.21;98635.28;3166957;27;19934;-71
2023/03/12 00:53:19;;;;;;;;;;;;;;;7.36;56.22;98646.63;3178573;27;19983;-70
2023/03/12 00:54:50;;;;;;;;;;;;;;;7.32;56.22;98644.28;3178241;27;19961;-70
2023/03/12 00:56:23;;;;;;;;;;;;;;;7.33;56.30;98635.59;3178257;27;19943;-71
2023/03/12 00:57:55;;;;;;;;;;;;;;;7.30;56.21;98641.75;3178015;27;20555;-70
2023/03/12 00:59:26;;;;;;;;;;;;;;;7.27;55.99;98652.25;3177528;27;19927;-71
2023/03/12 01:00:58;;;;;;;;;;;;;;;7.21;55.86;98642.22;3163724;27;19928;-71
2023/03/12 01:02:29;;;;;;;;;;;;;;;7.17;55.43;98649.31;3168974;27;19988;-72
2023/03/12 01:04:01;;;;;;;;;;;;;;;7.12;55.41;98643.50;3178207;27;20416;-70
2023/03/12 01:05:36;;;;;;;;;;;;;;;7.10;55.41;98663.47;3177491;27;19927;-71
2023/03/12 01:07:08;;;;;;;;;;;;;;;7.06;54.96;98657.59;3171793;27;19928;-72
2023/03/12 01:08:39;;;;;;;;;;;;;;;7.04;54.50;98666.38;3178259;27;19991;-70
2023/03/12 01:10:12;;;;;;;;;;;;;;;7.01;54.38;98657.00;3177413;27;20525;-71
2023/03/12 01:11:45;;;;;;;;;;;;;;;7.01;54.16;98648.38;3177808;27;19927;-71
2023/03/12 01:13:16;;;;;;;;;;;;;;;7.01;54.02;98644.06;3169957;27;19947;-70
2023/03/12 01:14:48;;;;;;;;;;;;;;;7.04;53.68;98662.03;3167442;27;19928;-71
2023/03/12 01:16:21;;;;;;;;;;;;;;;7.04;53.19;98662.03;3178054;27;19931;-70
2023/03/12 01:17:51;;;;;;;;;;;;;;;6.99;52.84;98653.63;3178032;27;19927;-70
2023/03/12 01:19:23;;;;;;;;;;;;;;;7.05;52.59;98655.94;3177926;27;20378;-67
2023/03/12 01:20:54;;;;;;;;;;;;;;;7.06;52.18;98664.53;3174123;27;20017;-72
2023/03/12 01:22:25;;;;;;;;;;;;;;;7.03;51.71;98670.69;3176984;27;20300;-71
2023/03/12 01:23:57;;;;;;;;;;;;;;;7.02;51.71;98656.06;3176976;27;20054;-70
2023/03/12 01:25:29;;;;;;;;;;;;;;;7.02;51.42;98657.84;3177389;27;19928;-70
2023/03/12 01:27:02;;;;;;;;;;;;;;;7.00;51.29;98657.88;3178148;27;20539;-70
2023/03/12 01:28:33;;;;;;;;;;;;;;;7.01;51.21;98662.19;3178006;27;20106;-71
2023/03/12 01:30:05;;;;;;;;;;;;;;;7.03;51.08;98669.84;3173193;27;19927;-70
2023/03/12 01:31:37;;;;;;;;;;;;;;;6.99;50.81;98676.94;3171586;27;20378;-71
2023/03/12 01:33:09;;;;;;;;;;;;;;;6.96;50.48;98673.66;3171794;27;20737;-71
2023/03/12 01:34:40;;;;;;;;;;;;;;;6.93;50.18;98674.66;3177962;27;20545;-68
2023/03/12 01:36:16;;;;;;;;;;;;;;;6.91;50.16;98681.63;3177049;27;20125;-70
2023/03/12 01:37:47;;;;;;;;;;;;;;;6.90;49.99;98679.13;3177357;27;20610;-70
2023/03/12 01:39:19;;;;;;;;;;;;;;;6.89;49.84;98692.97;3177828;27;19927;-70
2023/03/12 01:40:51;;;;;;;;;;;;;;;6.86;49.89;98698.28;3177537;27;20002;-70
2023/03/12 01:42:24;;;;;;;;;;;;;;;6.81;49.33;98701.13;3177277;28;19927;-71
2023/03/12 01:43:54;;;;;;;;;;;;;;;6.78;49.35;98685.75;3173081;27;19988;-71
2023/03/12 01:45:45;;;;;;;;;;;;;;;6.76;49.07;98710.84;3176807;27;20050;-72
2023/03/12 01:47:16;;;;;;;;;;;;;;;6.74;48.70;98708.31;3173507;27;19927;-72
2023/03/12 01:48:48;;;;;;;;;;;;;;;6.74;48.77;98729.00;3173266;28;19934;-71
2023/03/12 01:50:20;;;;;;;;;;;;;;;6.71;48.13;98715.38;3173421;27;20449;-70
2023/03/12 01:51:55;;;;;;;;;;;;;;;6.67;48.25;98725.03;3163460;27;20378;-70
2023/03/12 01:53:25;;;;;;;;;;;;;;;6.64;48.12;98721.75;3173893;27;19931;-70
2023/03/12 01:54:59;;;;;;;;;;;;;;;6.60;48.16;98740.00;3173048;28;20067;-70
2023/03/12 01:56:32;;;;;;;;;;;;;;;6.59;48.41;98733.13;3160894;28;20189;-70
2023/03/12 01:58:06;;;;;;;;;;;;;;;6.56;48.53;98737.63;3169838;28;19935;-70
2023/03/12 01:59:42;;;;;;;;;;;;;;;6.55;48.71;98738.53;3171952;28;20071;-71
2023/03/12 02:01:14;;;;;;;;;;;;;;;6.53;48.58;98743.78;3158369;28;19993;-70
2023/03/12 02:02:46;;;;;;;;;;;;;;;6.51;48.82;98740.44;3169800;28;20026;-69
2023/03/12 02:04:19;;;;;;;;;;;;;;;6.50;48.95;98748.25;3172764;28;19934;-70
2023/03/12 02:05:52;;;;;;;;;;;;;;;6.50;48.80;98753.41;3170011;28;19931;-69
2023/03/12 02:07:23;;;;;;;;;;;;;;;6.48;48.74;98755.25;3168698;28;20151;-70
2023/03/12 02:08:56;;;;;;;;;;;;;;;6.44;48.46;98762.28;3172854;27;20414;-69
2023/03/12 02:10:27;;;;;;;;;;;;;;;6.40;48.57;98765.09;3173696;28;19934;-69
2023/03/12 02:11:59;;;;;;;;;;;;;;;6.37;48.55;98747.97;3167234;28;20040;-69
2023/03/12 02:13:31;;;;;;;;;;;;;;;6.37;48.76;98741.03;3162970;28;19927;-70
2023/03/12 02:15:03;;;;;;;;;;;;;;;6.33;48.41;98752.44;3165183;28;19927;-70
2023/03/12 02:16:35;;;;;;;;;;;;;;;6.33;48.69;98767.97;3173276;27;20711;-69
2023/03/12 02:18:07;;;;;;;;;;;;;;;6.33;48.54;98774.84;3172891;28;19942;-70
2023/03/12 02:19:43;;;;;;;;;;;;;;;6.31;48.42;98774.94;3168071;28;20178;-70
2023/03/12 02:21:19;;;;;;;;;;;;;;;6.28;48.32;98767.31;3168216;27;20726;-69
2023/03/12 02:22:54;;;;;;;;;;;;;;;6.25;48.56;98775.22;3173317;28;20182;-69
2023/03/12 02:24:30;;;;;;;;;;;;;;;6.26;48.48;98779.47;3173412;28;19927;-69
2023/03/12 02:26:03;;;;;;;;;;;;;;;6.26;48.66;98783.81;3173406;28;20105;-70
2023/03/12 02:27:36;;;;;;;;;;;;;;;6.21;48.59;98783.16;3168387;28;20026;-69
2023/03/12 02:29:09;;;;;;;;;;;;;;;6.15;48.87;98797.19;3173323;28;19927;-69
2023/03/12 02:30:41;;;;;;;;;;;;;;;6.14;48.93;98792.94;3173357;27;20655;-69
2023/03/12 02:32:17;;;;;;;;;;;;;;;6.12;48.95;98799.91;3172904;27;19958;-70
2023/03/12 02:33:48;;;;;;;;;;;;;;;6.08;49.14;98801.78;3173126;28;19961;-70
2023/03/12 02:35:20;;;;;;;;;;;;;;;6.06;49.18;98806.19;3172880;28;19928;-70
2023/03/12 02:36:52;;;;;;;;;;;;;;;6.05;49.41;98804.50;3172269;27;19939;-70
2023/03/12 02:38:36;;;;;;;;;;;;;;;6.05;49.43;98814.84;3175039;27;19931;-70
2023/03/12 02:40:14;;;;;;;;;;;;;;;6.04;49.40;98815.75;3175353;27;19927;-68
2023/03/12 02:41:48;;;;;;;;;;;;;;;6.04;49.39;98818.34;3173470;27;19966;-69
2023/03/12 02:43:20;;;;;;;;;;;;;;;6.00;49.38;98816.78;3173099;27;20163;-70
2023/03/12 02:44:52;;;;;;;;;;;;;;;5.98;49.42;98812.59;3175404;27;20113;-69
2023/03/12 02:46:24;;;;;;;;;;;;;;;5.95;49.32;98816.16;3175502;27;19927;-69
2023/03/12 02:47:55;;;;;;;;;;;;;;;5.96;49.49;98810.06;3175248;27;20414;-70
2023/03/12 02:49:29;;;;;;;;;;;;;;;5.91;49.48;98815.38;3175677;27;20109;-70
2023/03/12 02:51:02;;;;;;;;;;;;;;;5.89;49.43;98817.22;3170208;27;19927;-69
2023/03/12 02:52:35;;;;;;;;;;;;;;;5.87;49.52;98815.59;3169116;27;19928;-69
2023/03/12 02:54:07;;;;;;;;;;;;;;;5.85;49.48;98815.63;3175992;27;19932;-70
2023/03/12 02:55:37;;;;;;;;;;;;;;;5.86;49.49;98819.09;3174567;27;20054;-70
2023/03/12 02:57:10;;;;;;;;;;;;;;;5.84;49.50;98813.13;3170936;27;20398;-70
2023/03/12 02:58:42;;;;;;;;;;;;;;;5.82;49.57;98823.50;3176070;27;19951;-71
2023/03/12 03:00:14;;;;;;;;;;;;;;;5.80;49.54;98835.69;3174972;27;20515;-70
2023/03/12 03:01:46;;;;;;;;;;;;;;;5.79;49.51;98833.13;3153672;27;20492;-69
2023/03/12 03:03:18;;;;;;;;;;;;;;;5.76;49.42;98835.84;3164757;27;20356;-70
2023/03/12 03:04:49;;;;;;;;;;;;;;;5.73;49.53;98831.66;3175641;27;20424;-70
2023/03/12 03:06:20;;;;;;;;;;;;;;;5.70;49.45;98844.69;3168577;27;19996;-70
2023/03/12 03:07:52;;;;;;;;;;;;;;;5.65;49.54;98831.97;3173883;27;20754;-70
2023/03/12 03:09:24;;;;;;;;;;;;;;;5.64;49.49;98840.59;3174876;27;20247;-70
2023/03/12 03:10:56;;;;;;;;;;;;;;;5.63;49.45;98841.53;3175310;27;19931;-70
2023/03/12 03:12:29;;;;;;;;;;;;;;;5.62;49.55;98850.19;3171237;27;19928;-70
2023/03/12 03:14:02;;;;;;;;;;;;;;;5.62;49.51;98852.75;3167824;27;20292;-70
2023/03/12 03:15:34;;;;;;;;;;;;;;;5.59;49.28;98855.47;3165786;27;19934;-70
2023/03/12 03:17:06;;;;;;;;;;;;;;;5.57;49.19;98857.25;3170428;27;19934;-70
2023/03/12 03:18:36;;;;;;;;;;;;;;;5.56;49.07;98858.19;3175278;27;19931;-71
2023/03/12 03:20:10;;;;;;;;;;;;;;;5.57;49.13;98865.00;3174777;27;20070;-70
2023/03/12 03:21:42;;;;;;;;;;;;;;;5.56;48.90;98863.34;3170322;27;19927;-68
2023/03/12 03:23:14;;;;;;;;;;;;;;;5.57;48.82;98869.34;3175557;27;20018;-69
2023/03/12 03:24:46;;;;;;;;;;;;;;;5.58;48.79;98876.19;3167330;27;19931;-68
2023/03/12 03:26:19;;;;;;;;;;;;;;;5.57;48.65;98875.34;3170880;27;20026;-70
2023/03/12 03:27:53;;;;;;;;;;;;;;;5.59;48.62;98875.28;3174704;27;19935;-69
2023/03/12 03:29:25;;;;;;;;;;;;;;;5.58;48.77;98866.69;3174925;27;19927;-67
2023/03/12 03:30:57;;;;;;;;;;;;;;;5.59;48.62;98881.31;3175186;27;19935;-68
2023/03/12 03:32:29;;;;;;;;;;;;;;;5.58;48.60;98884.75;3174816;27;19954;-67
2023/03/12 03:34:01;;;;;;;;;;;;;;;5.59;48.62;98883.88;3174273;27;20194;-68
2023/03/12 03:35:33;;;;;;;;;;;;;;;5.57;48.41;98885.66;3174262;27;20678;-68
2023/03/12 03:37:05;;;;;;;;;;;;;;;5.58;48.48;98892.50;3173804;27;19934;-68
2023/03/12 03:38:37;;;;;;;;;;;;;;;5.59;48.33;98898.50;3174922;27;19931;-68
2023/03/12 03:40:11;;;;;;;;;;;;;;;5.57;48.19;98906.34;3173356;27;20132;-68
2023/03/12 03:41:42;;;;;;;;;;;;;;;5.55;48.13;98907.28;3172142;27;20320;-69
2023/03/12 03:43:15;;;;;;;;;;;;;;;5.51;48.17;98901.41;3174212;27;19927;-68
2023/03/12 03:44:47;;;;;;;;;;;;;;;5.51;48.11;98911.75;3174121;27;19946;-69
2023/03/12 03:46:19;;;;;;;;;;;;;;;5.50;48.10;98906.63;3174946;27;19934;-70
2023/03/12 03:47:49;;;;;;;;;;;;;;;5.48;48.16;98902.38;3174425;27;19995;-70
2023/03/12 03:49:21;;;;;;;;;;;;;;;5.49;48.09;98921.28;3174096;27;19927;-70
2023/03/12 03:50:53;;;;;;;;;;;;;;;5.50;47.98;98910.03;3171501;27;19977;-71
2023/03/12 03:52:25;;;;;;;;;;;;;;;5.50;47.82;98922.13;3167666;27;19992;-68
2023/03/12 03:53:59;;;;;;;;;;;;;;;5.49;47.82;98926.44;3174699;27;19935;-70
2023/03/12 03:55:31;;;;;;;;;;;;;;;5.50;47.80;98922.94;3170253;27;19938;-68
2023/03/12 03:57:02;;;;;;;;;;;;;;;5.52;47.79;98918.56;3173836;27;20155;-68
2023/03/12 03:58:35;;;;;;;;;;;;;;;5.55;47.85;98922.78;3174032;27;19936;-71
2023/03/12 04:00:08;;;;;;;;;;;;;;;5.56;47.59;98921.88;3174072;27;19973;-71
2023/03/12 04:01:40;;;;;;;;;;;;;;;5.54;47.31;98921.94;3155736;27;19928;-70
2023/03/12 04:03:12;;;;;;;;;;;;;;;5.54;47.25;98921.13;3174270;27;19933;-70
2023/03/12 04:04:44;;;;;;;;;;;;;;;5.55;47.18;98920.19;3174369;27;19927;-70
2023/03/12 04:06:16;;;;;;;;;;;;;;;5.54;46.94;98924.53;3167526;27;20395;-71
2023/03/12 04:07:48;;;;;;;;;;;;;;;5.54;46.80;98910.78;3173878;27;19929;-69
2023/03/12 04:09:19;;;;;;;;;;;;;;;5.53;46.79;98925.44;3172110;27;20696;-69
2023/03/12 04:10:51;;;;;;;;;;;;;;;5.55;46.80;98927.94;3173072;27;19927;-70
2023/03/12 04:12:24;;;;;;;;;;;;;;;5.56;46.83;98933.06;3164991;27;19931;-69
2023/03/12 04:13:58;;;;;;;;;;;;;;;5.58;47.01;98938.16;3165441;27;19928;-68
2023/03/12 04:15:29;;;;;;;;;;;;;;;5.55;46.89;98936.53;3170337;27;19927;-71
2023/03/12 04:17:01;;;;;;;;;;;;;;;5.53;46.82;98943.53;3173944;27;19984;-70
2023/03/12 04:18:34;;;;;;;;;;;;;;;5.51;46.77;98945.31;3173886;27;19928;-70
2023/03/12 04:20:08;;;;;;;;;;;;;;;5.54;46.78;98949.53;3170501;27;19928;-69
2023/03/12 04:21:39;;;;;;;;;;;;;;;5.56;46.93;98943.41;3167023;27;19928;-68
2023/03/12 04:23:11;;;;;;;;;;;;;;;5.55;46.90;98954.63;3173860;27;19963;-69
2023/03/12 04:24:43;;;;;;;;;;;;;;;5.54;46.87;98944.34;3168330;27;20041;-70
2023/03/12 04:26:14;;;;;;;;;;;;;;;5.54;47.01;98936.59;3174289;27;19931;-69
2023/03/12 04:27:45;;;;;;;;;;;;;;;5.53;46.98;98948.69;3174205;27;19980;-70
2023/03/12 04:29:18;;;;;;;;;;;;;;;5.50;46.98;98948.78;3173727;27;20190;-69
2023/03/12 04:30:54;;;;;;;;;;;;;;;5.48;47.11;98948.00;3174429;27;20655;-69
2023/03/12 04:32:26;;;;;;;;;;;;;;;5.45;47.17;98946.38;3174124;27;20387;-69
2023/03/12 04:33:58;;;;;;;;;;;;;;;5.42;47.20;98950.81;3148454;28;20972;-69
2023/03/12 04:35:30;;;;;;;;;;;;;;;5.40;47.45;98956.03;3173213;27;19934;-69
2023/03/12 04:37:02;;;;;;;;;;;;;;;5.39;47.59;98953.53;3172643;27;19927;-70
2023/03/12 04:38:34;;;;;;;;;;;;;;;5.38;47.53;98950.09;3171872;27;19970;-68
2023/03/12 04:40:08;;;;;;;;;;;;;;;5.35;47.62;98957.94;3170427;27;19927;-69
2023/03/12 04:41:39;;;;;;;;;;;;;;;5.33;47.65;98954.59;3174144;27;19934;-69
2023/03/12 04:43:10;;;;;;;;;;;;;;;5.30;47.60;98953.88;3174215;27;19927;-70
2023/03/12 04:44:43;;;;;;;;;;;;;;;5.28;47.57;98963.41;3173834;27;19933;-70
2023/03/12 04:46:15;;;;;;;;;;;;;;;5.26;47.41;98960.88;3174541;27;20331;-69
2023/03/12 04:47:47;;;;;;;;;;;;;;;5.25;47.35;98962.63;3174256;27;19927;-70
2023/03/12 04:49:19;;;;;;;;;;;;;;;5.26;47.29;98971.19;3173312;27;20412;-69
2023/03/12 04:50:50;;;;;;;;;;;;;;;5.27;47.19;98974.63;3167376;27;19931;-70
2023/03/12 04:52:22;;;;;;;;;;;;;;;5.27;47.13;98972.91;3165894;27;19931;-70
2023/03/12 04:53:54;;;;;;;;;;;;;;;5.24;47.24;98976.44;3169423;27;19928;-70
2023/03/12 04:55:26;;;;;;;;;;;;;;;5.25;47.13;98990.16;3173382;27;19934;-68
2023/03/12 04:56:57;;;;;;;;;;;;;;;5.24;47.17;98984.16;3174184;27;20380;-69
2023/03/12 04:58:29;;;;;;;;;;;;;;;5.24;47.10;98997.06;3173789;27;20191;-68
2023/03/12 05:00:08;;;;;;;;;;;;;;;5.24;47.11;98997.06;3173733;27;20323;-69
2023/03/12 05:01:40;;;;;;;;;;;;;;;5.24;47.14;98994.50;3152463;27;19928;-69
2023/03/12 05:03:12;;;;;;;;;;;;;;;5.25;47.05;98998.75;3174946;27;19931;-69
2023/03/12 05:04:44;;;;;;;;;;;;;;;5.25;46.97;99001.34;3173483;27;20463;-70
2023/03/12 05:06:16;;;;;;;;;;;;;;;5.28;46.72;99004.72;3166838;27;19935;-71
2023/03/12 05:07:47;;;;;;;;;;;;;;;5.29;46.73;98994.31;3169419;27;19934;-70
2023/03/12 05:09:19;;;;;;;;;;;;;;;5.32;46.67;99003.69;3171167;27;20778;-69
2023/03/12 05:10:51;;;;;;;;;;;;;;;5.33;46.35;99013.13;3164556;27;20354;-69
2023/03/12 05:12:22;;;;;;;;;;;;;;;5.33;46.30;99013.97;3169466;27;19940;-69
2023/03/12 05:13:54;;;;;;;;;;;;;;;5.33;46.18;99021.72;3168134;27;20276;-70
2023/03/12 05:15:27;;;;;;;;;;;;;;;5.35;46.09;99030.22;3168665;27;20304;-70
2023/03/12 05:16:59;;;;;;;;;;;;;;;5.36;46.17;99031.09;3171769;27;20271;-70
2023/03/12 05:18:31;;;;;;;;;;;;;;;5.37;46.15;99027.59;3173155;27;19928;-70
2023/03/12 05:20:04;;;;;;;;;;;;;;;5.38;46.08;99029.28;3174486;27;19934;-70
2023/03/12 05:21:36;;;;;;;;;;;;;;;5.40;46.25;99038.66;3168841;27;19928;-69
2023/03/12 05:23:08;;;;;;;;;;;;;;;5.39;46.12;99029.25;3170103;27;19962;-70
2023/03/12 05:24:40;;;;;;;;;;;;;;;5.44;46.07;99039.38;3173162;27;19963;-70
2023/03/12 05:26:16;;;;;;;;;;;;;;;5.43;45.91;99048.03;3174026;27;19937;-70
2023/03/12 05:27:48;;;;;;;;;;;;;;;5.43;45.79;99040.28;3174421;27;20011;-69
2023/03/12 05:29:20;;;;;;;;;;;;;;;5.44;45.72;99045.41;3174553;27;19950;-70
2023/03/12 05:30:53;;;;;;;;;;;;;;;5.44;45.57;99049.72;3174220;27;19927;-73
2023/03/12 05:32:25;;;;;;;;;;;;;;;5.45;45.77;99041.94;3174292;27;19974;-72
2023/03/12 05:33:57;;;;;;;;;;;;;;;5.46;45.89;99059.09;3172938;27;19927;-71
2023/03/12 05:35:28;;;;;;;;;;;;;;;5.48;45.91;99048.72;3172814;27;19927;-71
2023/03/12 05:37:00;;;;;;;;;;;;;;;5.49;45.83;99050.41;3170141;27;20042;-71
2023/03/12 05:38:32;;;;;;;;;;;;;;;5.49;45.88;99050.41;3172554;27;19979;-70
2023/03/12 05:40:06;;;;;;;;;;;;;;;5.47;45.74;99049.59;3173868;27;20132;-71
2023/03/12 05:41:38;;;;;;;;;;;;;;;5.46;45.70;99053.09;3173688;27;19977;-69
2023/03/12 05:43:10;;;;;;;;;;;;;;;5.47;45.59;99059.94;3172432;27;20033;-70
2023/03/12 05:44:42;;;;;;;;;;;;;;;5.46;45.59;99055.66;3173697;27;20196;-69
2023/03/12 05:46:16;;;;;;;;;;;;;;;5.46;45.54;99059.09;3169822;27;19935;-71
2023/03/12 05:47:47;;;;;;;;;;;;;;;5.47;45.44;99057.34;3167929;28;19980;-69
2023/03/12 05:49:19;;;;;;;;;;;;;;;5.49;45.30;99068.47;3173458;27;19927;-69
2023/03/12 05:50:51;;;;;;;;;;;;;;;5.50;45.37;99070.16;3170917;28;19932;-69
2023/03/12 05:52:22;;;;;;;;;;;;;;;5.50;45.23;99066.72;3165243;28;19927;-68
2023/03/12 05:53:54;;;;;;;;;;;;;;;5.52;45.33;99072.69;3173266;27;19935;-69
2023/03/12 05:55:26;;;;;;;;;;;;;;;5.53;45.10;99082.13;3174188;28;19927;-69
2023/03/12 05:56:58;;;;;;;;;;;;;;;5.51;45.03;99082.19;3172681;28;19935;-73
2023/03/12 05:58:29;;;;;;;;;;;;;;;5.53;44.93;99082.97;3173260;27;20014;-75
2023/03/12 06:00:01;;;;;;;;;;;;;;;5.55;45.04;99080.31;3172948;28;20366;-67
2023/03/12 06:01:33;;;;;;;;;;;;;;;5.60;45.16;99088.75;3171133;28;19927;-67
2023/03/12 06:03:05;;;;;;;;;;;;;;;5.62;44.93;99089.53;3172522;27;19928;-67
2023/03/12 06:04:36;;;;;;;;;;;;;;;5.65;44.99;99094.59;3165795;28;20007;-68
2023/03/12 06:06:07;;;;;;;;;;;;;;;5.71;45.07;99096.97;3166382;28;19928;-68
2023/03/12 06:07:45;;;;;;;;;;;;;;;5.75;44.82;99097.69;3171071;28;19931;-78
2023/03/12 06:09:16;;;;;;;;;;;;;;;5.76;44.50;99102.78;3173488;27;20354;-81
2023/03/12 06:10:51;;;;;;;;;;;;;;;5.77;44.44;99114.81;3174422;27;19931;-80
2023/03/12 06:12:22;;;;;;;;;;;;;;;5.80;44.59;99112.13;3174478;27;19943;-78
2023/03/12 06:13:54;;;;;;;;;;;;;;;5.84;44.50;99123.19;3169366;27;19927;-83
2023/03/12 06:15:27;;;;;;;;;;;;;;;5.90;44.48;99118.63;3172394;27;19933;-83
2023/03/12 06:17:00;;;;;;;;;;;;;;;5.97;44.24;99121.84;3175956;27;20416;-71
2023/03/12 06:18:32;;;;;;;;;;;;;;;6.05;44.20;99130.16;3175323;27;19962;-71
2023/03/12 06:20:04;;;;;;;;;;;;;;;6.11;44.13;99124.75;3176111;27;19927;-70
2023/03/12 06:21:35;;;;;;;;;;;;;;;6.20;44.25;99130.50;3169954;27;19927;-68
2023/03/12 06:23:07;;;;;;;;;;;;;;;6.31;44.23;99141.28;3176230;27;19933;-77
2023/03/12 06:24:41;;;;;;;;;;;;;;;6.42;44.13;99135.66;3168920;27;19933;-79
2023/03/12 06:26:13;;;;;;;;;;;;;;;6.48;43.92;99138.06;3175561;27;20373;-76
2023/03/12 06:27:45;;;;;;;;;;;;;;;6.55;43.69;99139.47;3176372;27;19927;-77
2023/03/12 06:29:16;;;;;;;;;;;;;;;6.61;43.48;99158.19;3176482;27;19966;-72
2023/03/12 06:30:48;;;;;;;;;;;;;;;6.70;43.43;99143.22;3176645;27;19975;-75
2023/03/12 06:32:21;;;;;;;;;;;;;;;6.76;43.16;99143.78;3174145;27;19971;-72
2023/03/12 06:33:53;;;;;;;;;;;;;;;6.86;42.90;99138.25;3171102;27;19927;-69
2023/03/12 06:35:25;;;;;;;;;;;;;;;6.97;42.82;99142.09;3160617;27;19928;-71
2023/03/12 06:36:57;;;;;;;;;;;;;;;7.09;42.65;99147.66;3169004;27;19927;-70
2023/03/12 06:38:28;;;;;;;;;;;;;;;7.32;42.65;99146.72;3175712;27;20300;-71
2023/03/12 06:40:00;;;;;;;;;;;;;;;7.54;42.68;99150.06;3175416;27;19945;-72
2023/03/12 06:41:32;;;;;;;;;;;;;;;7.83;42.31;99153.13;3175685;27;19980;-70
2023/03/12 06:43:10;;;;;;;;;;;;;;;8.08;41.74;99148.53;3169090;27;19978;-70
2023/03/12 06:44:42;;;;;;;;;;;;;;;8.36;40.57;99163.66;3174985;27;20353;-70
2023/03/12 06:46:15;;;;;;;;;;;;;;;8.59;40.41;99164.41;3175144;27;20004;-78
2023/03/12 06:47:48;;;;;;;;;;;;;;;8.87;40.06;99166.50;3175417;27;19932;-76
2023/03/12 06:49:20;;;;;;;;;;;;;;;9.10;39.71;99175.78;3175180;27;19938;-72
2023/03/12 06:50:52;;;;;;;;;;;;;;;9.32;38.63;99173.81;3169284;27;19934;-72
2023/03/12 06:52:23;;;;;;;;;;;;;;;9.53;37.95;99182.28;3169376;27;19927;-77
2023/03/12 06:53:55;;;;;;;;;;;;;;;9.63;36.83;99169.66;3175767;27;20552;-71
2023/03/12 06:55:27;;;;;;;;;;;;;;;9.83;36.94;99176.44;3175378;27;19928;-74
2023/03/12 06:56:58;;;;;;;;;;;;;;;10.07;36.56;99174.28;3174979;27;19937;-71
2023/03/12 06:58:30;;;;;;;;;;;;;;;10.18;36.02;99165.94;3175053;27;19931;-72
2023/03/12 07:00:02;;;;;;;;;;;;;;;10.28;35.54;99182.75;3174838;27;20380;-72
2023/03/12 07:01:34;;;;;;;;;;;;;;;10.08;34.88;99181.16;3154676;27;19966;-75
2023/03/12 07:03:07;;;;;;;;;;;;;;;9.90;34.96;99187.34;3174810;27;19927;-71
2023/03/12 07:04:39;;;;;;;;;;;;;;;9.71;35.04;99182.25;3175042;27;20003;-72
2023/03/12 07:06:13;;;;;;;;;;;;;;;9.56;34.93;99189.94;3171064;27;20000;-71
2023/03/12 07:07:44;;;;;;;;;;;;;;;9.43;34.93;99183.66;3175278;27;20450;-70
2023/03/12 07:09:16;;;;;;;;;;;;;;;9.46;34.56;99195.66;3168277;27;19975;-72
2023/03/12 07:10:48;;;;;;;;;;;;;;;9.82;34.60;99200.75;3175411;27;19934;-79
2023/03/12 07:12:20;;;;;;;;;;;;;;;10.19;34.57;99207.47;3165373;27;20000;-73
2023/03/12 07:13:51;;;;;;;;;;;;;;;10.55;34.10;99189.97;3157771;27;19927;-72
2023/03/12 07:15:23;;;;;;;;;;;;;;;10.96;33.61;99205.06;3155647;27;19981;-73
2023/03/12 07:16:56;;;;;;;;;;;;;;;11.33;33.53;99207.28;3173377;27;20395;-77
2023/03/12 07:18:29;;;;;;;;;;;;;;;11.63;32.76;99187.31;3167940;27;19957;-76
2023/03/12 07:20:01;;;;;;;;;;;;;;;11.84;31.66;99193.88;3154760;28;20042;-74
2023/03/12 07:21:33;;;;;;;;;;;;;;;11.99;31.69;99192.13;3155608;27;20446;-78
2023/03/12 07:23:05;;;;;;;;;;;;;;;12.23;31.30;99205.44;3156918;28;19928;-79
2023/03/12 07:24:36;;;;;;;;;;;;;;;12.18;30.79;99200.50;3154229;28;19934;-71
2023/03/12 07:26:08;;;;;;;;;;;;;;;11.94;30.55;99184.56;3155602;28;19928;-70
2023/03/12 07:27:40;;;;;;;;;;;;;;;11.81;31.12;99184.44;3155497;28;20007;-74
2023/03/12 07:29:12;;;;;;;;;;;;;;;11.64;30.84;99189.00;3156047;28;20338;-70
2023/03/12 07:30:49;;;;;;;;;;;;;;;11.48;30.79;99182.09;3158698;28;19934;-73
2023/03/12 07:32:20;;;;;;;;;;;;;;;11.50;31.44;99187.19;3153825;28;20098;-72
2023/03/12 07:33:53;;;;;;;;;;;;;;;11.70;30.69;99186.03;3151379;28;19928;-73
2023/03/12 07:35:25;;;;;;;;;;;;;;;11.86;30.42;99172.91;3153475;27;20039;-76
2023/03/12 07:36:57;;;;;;;;;;;;;;;12.00;29.71;99178.16;3154115;28;19951;-71
2023/03/12 07:38:28;;;;;;;;;;;;;;;12.14;29.17;99164.25;3156736;27;20406;-75
2023/03/12 07:40:00;;;;;;;;;;;;;;;12.26;29.00;99172.16;3155915;27;19932;-73
2023/03/12 07:41:32;;;;;;;;;;;;;;;12.39;29.10;99153.13;3150749;27;19935;-73
2023/03/12 07:43:09;;;;;;;;;;;;;;;12.58;29.03;99161.47;3157127;27;19928;-75
2023/03/12 07:44:41;;;;;;;;;;;;;;;12.72;28.33;99174.50;3158660;27;19981;-71
2023/03/12 07:46:13;;;;;;;;;;;;;;;12.89;28.43;99151.66;3165727;27;19928;-75
2023/03/12 07:47:44;;;;;;;;;;;;;;;13.21;28.36;99165.22;3172604;27;20522;-73
2023/03/12 07:49:19;;;;;;;;;;;;;;;13.52;28.30;99171.91;3149800;28;20665;-71
2023/03/12 07:50:51;;;;;;;;;;;;;;;13.68;27.75;99148.16;3160193;27;19932;-76
2023/03/12 07:52:23;;;;;;;;;;;;;;;13.91;27.17;99174.53;3155983;27;19927;-71
2023/03/12 07:53:55;;;;;;;;;;;;;;;13.97;26.67;99188.03;3169136;27;19927;-74
2023/03/12 07:55:26;;;;;;;;;;;;;;;13.84;26.57;99174.97;3159152;27;19927;-74
2023/03/12 07:56:58;;;;;;;;;;;;;;;13.74;26.34;99186.97;3153661;27;20011;-78
2023/03/12 07:58:30;;;;;;;;;;;;;;;13.62;26.84;99187.81;3153793;27;19972;-72
2023/03/12 08:00:04;;;;;;;;;;;;;;;13.61;27.32;99173.91;3162374;27;20625;-76
2023/03/12 08:01:35;;;;;;;;;;;;;;;13.76;27.08;99189.50;3157422;27;20743;-74
2023/03/12 08:03:07;;;;;;;;;;;;;;;13.93;27.35;99190.97;3158760;27;19928;-76
2023/03/12 08:04:40;;;;;;;;;;;;;;;14.21;27.19;99195.97;3154463;27;20020;-74
2023/03/12 08:06:12;;;;;;;;;;;;;;;14.48;27.40;99202.84;3157328;27;20278;-79